Tuesday, July 28, 2015, 10:34 PM EDT

KFYJ, West Point, Middle Peninsula Regional Airport

Location: Shacklefords, VA, United States Lat: 37.521
Local Time: 10:34 PM EDT ( 2:34 GMT) Lon: -76.764
Time Zone: US/Eastern Elev: 22 ft

Show me the last for .
Show Decoded

2015-07-28 22:15 METAR KFYJ 290215Z AUTO 06003KT 10SM CLR 26/24 A3003 RMK AO2 T02610240 =
2015-07-28 21:55 METAR KFYJ 290155Z AUTO 00000KT 10SM CLR 26/24 A3003 RMK AO2 T02620240 =
2015-07-28 21:35 METAR KFYJ 290135Z AUTO 00000KT 10SM CLR 27/24 A3002 RMK AO2 T02650238 =
2015-07-28 21:15 METAR KFYJ 290115Z AUTO 00000KT 10SM CLR 27/24 A2999 RMK AO2 T02650240 =
2015-07-28 20:35 METAR KFYJ 290035Z AUTO 00000KT 10SM CLR 27/24 A2999 RMK AO2 T02700239 =
2015-07-28 20:15 METAR KFYJ 290015Z AUTO 00000KT 10SM SCT080 28/23 A2999 RMK AO2 T02820229 =
2015-07-28 19:55 METAR KFYJ 282355Z AUTO 00000KT 10SM SCT080 29/23 A2998 RMK AO2 T02870231 10322
                 20286 =
2015-07-28 19:35 METAR KFYJ 282335Z AUTO 00000KT 10SM CLR 29/22 A2999 RMK AO2 T02910223 =
2015-07-28 19:15 METAR KFYJ 282315Z AUTO 00000KT 10SM CLR 29/22 A2999 RMK AO2 T02920223 =
2015-07-28 18:55 METAR KFYJ 282255Z AUTO 00000KT 10SM CLR 29/22 A2999 RMK AO2 T02930222 =
2015-07-28 18:35 METAR KFYJ 282235Z AUTO 21003KT 10SM CLR 30/22 A2999 RMK AO2 T02950220 =
2015-07-28 18:15 METAR KFYJ 282215Z AUTO 20004KT 10SM CLR 30/22 A2998 RMK AO2 T02990219 =
2015-07-28 17:35 METAR KFYJ 282135Z AUTO 00000KT 10SM SCT050 SCT110 29/22 A2998 RMK AO2 T02940223
                 =
2015-07-28 17:15 METAR KFYJ 282115Z AUTO 24003KT 10SM SCT041 BKN110 29/22 A2999 RMK AO2 T02870220
                 =
2015-07-28 16:55 METAR KFYJ 282055Z AUTO 23005KT 10SM SCT041 BKN110 29/23 A3000 RMK AO2 T02870225
                 =
2015-07-28 16:35 METAR KFYJ 282035Z AUTO 26006KT 10SM BKN120 29/22 A3001 RMK AO2 T02900223 =
2015-07-28 16:15 METAR KFYJ 282015Z AUTO 24008KT 10SM SCT032 SCT046 SCT060 29/23 A2999 RMK AO2
                 T02920226 =
2015-07-28 15:55 METAR KFYJ 281955Z AUTO 23005KT 10SM SCT034 BKN046 OVC055 30/22 A2999 RMK AO2
                 T03020223 =
2015-07-28 15:35 METAR KFYJ 281935Z AUTO 17005KT 10SM SCT038 SCT050 OVC055 31/22 A2999 RMK AO2
                 T03090215 =
2015-07-28 15:15 METAR KFYJ 281915Z AUTO 15008KT 10SM SCT034 SCT043 BKN050 31/21 A2999 RMK AO2
                 T03110213 =
2015-07-28 14:55 METAR KFYJ 281855Z AUTO 15007KT 10SM SCT043 SCT050 SCT075 31/22 A3000 RMK AO2
                 T03140215 =
2015-07-28 14:35 METAR KFYJ 281835Z AUTO 14009KT 10SM CLR 32/22 A2999 RMK AO2 T03210224 =
2015-07-28 14:15 METAR KFYJ 281815Z AUTO 14009G14KT 10SM CLR 32/22 A2999 RMK AO2 T03190221 =
2015-07-28 13:55 METAR KFYJ 281755Z AUTO 15009KT 10SM CLR 32/22 A2999 RMK AO2 T03170222 10321
                 20265 =
2015-07-28 13:35 METAR KFYJ 281735Z AUTO 15008KT 10SM SCT060 32/22 A3001 RMK AO2 T03190224 =
2015-07-28 13:15 METAR KFYJ 281715Z AUTO 15006KT 10SM SCT060 SCT110 31/22 A3001 RMK AO2 T03130218
                 =
2015-07-28 12:55 METAR KFYJ 281655Z AUTO 19008KT 10SM SCT029 SCT060 SCT110 32/22 A3002 RMK AO2
                 T03210221 =
2015-07-28 12:35 METAR KFYJ 281635Z AUTO 15006KT 10SM SCT060 SCT075 BKN110 32/22 A3002 RMK AO2
                 T03150217 =
2015-07-28 12:15 METAR KFYJ 281615Z AUTO 16004KT 10SM SCT025 SCT075 SCT110 31/22 A3003 RMK AO2
                 T03100219 =
2015-07-28 11:55 METAR KFYJ 281555Z AUTO 19003KT 10SM SCT023 31/22 A3003 RMK AO2 T03130221 =
2015-07-28 11:35 METAR KFYJ 281535Z AUTO 13004KT 10SM SCT021 31/22 A3003 RMK AO2 T03080220 =
2015-07-28 11:15 METAR KFYJ 281515Z AUTO 18003KT 10SM SCT019 SCT045 31/22 A3003 RMK AO2 T03050223
                 =
2015-07-28 10:55 METAR KFYJ 281455Z AUTO 23003KT 10SM SCT017 SCT047 30/22 A3003 RMK AO2 T02950220
                 =
2015-07-28 10:35 METAR KFYJ 281435Z AUTO 00000KT 10SM SCT017 BKN047 30/22 A3003 RMK AO2 T02950218
                 =
2015-07-28 10:15 METAR KFYJ 281415Z AUTO 18004KT 10SM SCT047 29/22 A3002 RMK AO2 T02930221 =
2015-07-28 09:55 METAR KFYJ 281355Z AUTO 00000KT 10SM SCT047 29/22 A3003 RMK AO2 T02870221 =
2015-07-28 09:35 METAR KFYJ 281335Z AUTO 00000KT 10SM CLR 28/23 A3003 RMK AO2 T02820225 =
2015-07-28 09:15 METAR KFYJ 281315Z AUTO 16003KT 10SM CLR 28/22 A3003 RMK AO2 T02780223 =
2015-07-28 08:55 METAR KFYJ 281255Z AUTO 00000KT 10SM SCT050 27/23 A3003 RMK AO2 T02730226 =
2015-07-28 08:35 METAR KFYJ 281235Z AUTO 20003KT 10SM BKN055 27/23 A3003 RMK AO2 T02670227 =
2015-07-28 08:15 METAR KFYJ 281215Z AUTO 17004KT 10SM BKN047 OVC055 27/23 A3003 RMK AO2 T02650226
                 =
2015-07-28 07:55 METAR KFYJ 281155Z AUTO 18004KT 10SM BKN047 27/23 A3003 RMK AO2 70002 T02670226
                 10267 20237 =
2015-07-28 07:35 METAR KFYJ 281135Z AUTO 17003KT 10SM SCT042 26/23 A3003 RMK AO2 T02610226 =
2015-07-28 07:15 METAR KFYJ 281115Z AUTO 00000KT 10SM SCT042 SCT048 25/23 A3003 RMK AO2 T02480226
                 =
2015-07-28 06:55 METAR KFYJ 281055Z AUTO 00000KT 10SM SCT045 24/22 A3003 RMK AO2 T02400218 =
2015-07-28 06:35 METAR KFYJ 281035Z AUTO 00000KT 10SM CLR 24/22 A3002 RMK AO2 T02400218 =
2015-07-28 06:15 METAR KFYJ 281015Z AUTO 00000KT 10SM SCT055 24/22 A3001 RMK AO2 T02390215 =
2015-07-28 05:55 METAR KFYJ 280955Z AUTO 00000KT 10SM SCT055 25/22 A3001 RMK AO2 T02470216 =
2015-07-28 05:35 METAR KFYJ 280935Z AUTO 00000KT 10SM CLR 25/22 A3001 RMK AO2 T02500218 =
2015-07-28 05:15 METAR KFYJ 280915Z AUTO 00000KT 10SM CLR 25/22 A3001 RMK AO2 T02500218 =
2015-07-28 04:35 METAR KFYJ 280835Z AUTO 00000KT 10SM SCT050 26/22 A3002 RMK AO2 T02560220 =
2015-07-28 04:15 METAR KFYJ 280815Z AUTO 00000KT 10SM SCT050 SCT060 BKN085 25/22 A3002 RMK AO2
                 T02500222 =
2015-07-28 03:55 METAR KFYJ 280755Z AUTO 00000KT 10SM SCT046 SCT055 BKN085 25/22 A3002 RMK AO2
                 T02450222 =
2015-07-28 03:35 METAR KFYJ 280735Z AUTO 00000KT 10SM SCT048 SCT055 25/22 A3003 RMK AO2 T02480223
                 =
2015-07-28 03:15 METAR KFYJ 280715Z AUTO 00000KT 10SM SCT055 25/22 A3003 RMK AO2 T02470222 =
2015-07-28 02:55 METAR KFYJ 280655Z AUTO 00000KT 10SM SCT055 26/22 A3003 RMK AO2 T02550222 =
2015-07-28 02:35 METAR KFYJ 280635Z AUTO 17003KT 10SM SCT055 26/22 A3003 RMK AO2 T02560220 =
2015-07-28 01:35 METAR KFYJ 280535Z AUTO 00000KT 10SM SCT080 26/23 A3003 RMK AO2 T02550228 =
2015-07-28 01:15 METAR KFYJ 280515Z AUTO 17003KT 10SM SCT070 OVC080 25/23 A3003 RMK AO2 T02470231
                 =
2015-07-28 00:55 METAR KFYJ 280455Z AUTO 00000KT 10SM SCT070 BKN080 24/23 A3003 RMK AO2 T02410225
                 =
2015-07-28 00:35 METAR KFYJ 280435Z AUTO 00000KT 7SM SCT070 23/22 A3003 RMK AO2 T02330217 =
2015-07-28 00:15 METAR KFYJ 280415Z AUTO 00000KT 7SM CLR 24/22 A3003 RMK AO2 T02400222 =
2015-07-27 23:55 METAR KFYJ 280355Z AUTO 00000KT 10SM SCT050 SCT060 SCT075 24/22 A3003 RMK AO2
                 T02400222 =
2015-07-27 23:35 METAR KFYJ 280335Z AUTO 00000KT 10SM SCT060 SCT075 24/22 A3003 RMK AO2 T02420223
                 =
2015-07-27 23:15 METAR KFYJ 280315Z AUTO 00000KT 10SM SCT060 24/22 A3003 RMK AO2 T02400221 =
2015-07-27 22:55 METAR KFYJ 280255Z AUTO 00000KT 10SM SCT060 24/22 A3003 RMK AO2 60001 T02410221
                 =
2015-07-27 22:35 METAR KFYJ 280235Z AUTO 00000KT 10SM CLR 24/22 A3003 RMK AO2 T02440222 =

Support USWX by starting your Amazon purchase here.